Time;durP1;ratioP1;P1;durP2;ratioP2;P2;SDS_P1;SDS_P2;PMS_P1;PMS_P2;Temp;Humidity;BMP_temperature;BMP_pressure;BME280_temperature;BME280_humidity;BME280_pressure;Samples;Min_cycle;Max_cycle;Signal;HPM_P1;HPM_P2
2022/05/23 06:59:28;;;;;;;5.30;5.00;;;16.70;99.90;;;;;;4841227;29;20476;-95
2022/05/23 07:38:18;;;;;;;5.50;4.97;;;18.40;99.90;;;;;;4842959;29;20566;-96
2022/05/23 07:40:48;;;;;;;4.80;4.50;;;18.50;99.90;;;;;;4828102;29;21052;-95
2022/05/23 07:43:15;;;;;;;5.60;5.10;;;18.90;99.90;;;;;;4845164;29;20544;-95
2022/05/23 07:45:43;;;;;;;5.70;5.20;;;19.00;99.90;;;;;;4832677;29;20498;-94
2022/05/23 07:48:09;;;;;;;5.70;5.20;;;19.20;99.90;;;;;;4842402;29;20444;-93
2022/05/23 07:50:34;;;;;;;6.37;5.63;;;19.40;99.90;;;;;;4822010;29;20463;-92
2022/05/23 08:14:34;;;;;;;4.50;4.10;;;19.50;99.90;;;;;;5677366;23;20996;-95
2022/05/23 08:17:05;;;;;;;4.57;4.17;;;19.70;99.90;;;;;;4902483;29;20434;-96
2022/05/23 08:32:50;;;;;;;4.40;4.00;;;19.50;99.90;;;;;;5422925;23;20539;-95
2022/05/23 08:35:18;;;;;;;4.33;3.93;;;19.80;99.90;;;;;;4839097;29;20566;-91
2022/05/23 08:38:00;;;;;;;3.83;3.53;;;20.10;99.90;;;;;;4825198;29;20472;-92
2022/05/23 08:41:20;;;;;;;7.10;4.07;;;20.40;99.90;;;;;;4814237;29;20791;-95
2022/05/23 08:44:17;;;;;;;4.10;3.80;;;20.80;99.90;;;;;;4805618;29;20448;-89
2022/05/23 08:46:46;;;;;;;3.80;3.40;;;21.20;99.90;;;;;;4809898;29;21168;-88
2022/05/23 08:49:21;;;;;;;3.43;3.20;;;21.60;99.90;;;;;;4809013;29;20462;-91
2022/05/23 08:52:25;;;;;;;3.90;3.60;;;21.30;99.90;;;;;;4805308;29;20534;-89
2022/05/23 08:55:12;;;;;;;4.03;3.40;;;21.60;99.90;;;;;;4807907;29;20466;-90
2022/05/23 08:58:00;;;;;;;3.57;3.27;;;22.10;99.90;;;;;;4819279;29;20649;-88
2022/05/23 09:00:39;;;;;;;3.87;3.40;;;22.50;99.90;;;;;;4819251;29;20564;-90
2022/05/23 09:03:25;;;;;;;3.73;3.40;;;22.60;99.90;;;;;;4811821;29;20448;-89
2022/05/23 09:05:57;;;;;;;5.60;3.40;;;22.60;99.90;;;;;;4828579;29;20491;-87
2022/05/23 09:08:27;;;;;;;5.50;4.10;;;22.50;99.90;;;;;;4830103;29;20433;-89
2022/05/23 09:11:03;;;;;;;5.10;4.40;;;22.30;99.90;;;;;;4817734;29;21162;-88
2022/05/23 09:13:33;;;;;;;4.10;3.80;;;21.70;99.90;;;;;;4842656;29;20460;-91
2022/05/23 09:37:30;;;;;;;5.70;4.40;;;21.80;99.90;;;;;;5158793;23;20525;-91
2022/05/23 09:40:09;;;;;;;4.83;4.17;;;21.90;99.90;;;;;;4846472;29;21148;-92
2022/05/23 09:48:24;;;;;;;4.23;3.93;;;22.70;99.90;;;;;;4849299;29;20809;-95
2022/05/23 09:51:13;;;;;;;5.17;4.70;;;22.80;99.90;;;;;;4861283;29;20479;-91
2022/05/23 09:53:54;;;;;;;4.80;4.37;;;23.20;99.90;;;;;;4857024;29;20459;-95
2022/05/23 09:56:35;;;;;;;4.80;4.30;;;23.50;99.90;;;;;;4856333;29;20525;-94
2022/05/23 09:59:07;;;;;;;4.43;4.13;;;23.70;99.90;;;;;;4863003;29;20453;-91
2022/05/23 10:01:43;;;;;;;5.13;4.13;;;23.60;99.90;;;;;;4856957;29;20457;-96
2022/05/23 10:04:24;;;;;;;5.50;4.30;;;23.30;99.90;;;;;;4848831;29;21139;-95
2022/05/23 10:06:50;;;;;;;4.93;4.50;;;23.20;99.90;;;;;;4880591;29;20510;-96
2022/05/23 10:15:37;;;;;;;4.10;3.70;;;22.50;99.90;;;;;;5030714;23;20975;-96
2022/05/23 10:18:10;;;;;;;4.50;4.20;;;22.30;99.90;;;;;;4847166;29;20459;-94
2022/05/23 10:20:44;;;;;;;4.80;4.40;;;22.10;99.90;;;;;;4820612;29;20440;-93
2022/05/23 10:23:33;;;;;;;5.10;4.60;;;22.10;99.90;;;;;;4823876;29;20449;-91
2022/05/23 10:26:25;;;;;;;4.90;4.50;;;22.00;99.90;;;;;;4842087;29;20664;-94
2022/05/23 10:29:05;;;;;;;6.53;4.70;;;21.90;99.90;;;;;;4827010;29;20452;-96
2022/05/23 10:31:44;;;;;;;4.47;4.17;;;21.70;99.90;;;;;;4851609;29;20526;-94
2022/05/23 10:34:39;;;;;;;4.50;4.10;;;21.50;99.90;;;;;;4845914;29;20545;-92
2022/05/23 10:37:14;;;;;;;7.43;4.80;;;21.50;99.90;;;;;;4851595;29;20458;-95
2022/05/23 10:43:01;;;;;;;5.47;5.07;;;21.40;99.90;;;;;;4834055;29;20475;-90
2022/05/23 10:46:28;;;;;;;5.20;4.73;;;21.40;99.90;;;;;;4827485;29;20932;-92
2022/05/23 10:49:29;;;;;;;5.10;4.60;;;21.40;99.90;;;;;;4826190;29;20561;-89
2022/05/23 10:52:36;;;;;;;5.17;4.67;;;21.30;99.90;;;;;;4836556;29;20483;-90
2022/05/23 10:55:34;;;;;;;5.53;5.13;;;21.20;99.90;;;;;;4777402;29;20484;-91
2022/05/23 11:04:59;;;;;;;7.13;6.53;;;20.90;99.90;;;;;;4752632;30;21057;-93
2022/05/23 11:07:47;;;;;;;6.47;5.87;;;20.90;99.90;;;;;;4825317;29;21054;-92
2022/05/23 11:10:32;;;;;;;7.10;5.90;;;20.70;99.90;;;;;;4819807;29;21028;-90
2022/05/23 11:13:38;;;;;;;8.07;6.00;;;20.60;99.90;;;;;;4831132;29;20442;-89
2022/05/23 11:16:10;;;;;;;5.83;5.20;;;20.40;99.90;;;;;;4832392;29;20886;-90
2022/05/23 11:18:55;;;;;;;5.93;5.33;;;20.10;99.90;;;;;;4835210;29;20452;-96
2022/05/23 11:21:29;;;;;;;6.80;5.57;;;19.90;99.90;;;;;;4821720;29;20489;-91
2022/05/23 11:24:08;;;;;;;7.30;5.60;;;19.70;99.90;;;;;;4830799;29;20449;-90
2022/05/23 11:26:40;;;;;;;6.50;5.80;;;19.50;99.90;;;;;;4831310;29;20978;-93
2022/05/23 11:35:10;;;;;;;7.73;5.40;;;18.90;99.90;;;;;;4821121;29;20494;-96
2022/05/23 11:37:45;;;;;;;6.37;5.70;;;18.60;99.90;;;;;;4839582;29;20448;-96
2022/05/23 11:40:37;;;;;;;7.07;5.47;;;18.50;99.90;;;;;;4830829;29;20494;-94
2022/05/23 11:43:05;;;;;;;6.90;5.50;;;18.30;99.90;;;;;;4820693;29;20444;-96
2022/05/23 11:48:41;;;;;;;8.10;6.40;;;18.00;99.90;;;;;;4818796;29;21494;-94
2022/05/23 11:51:30;;;;;;;7.10;5.10;;;18.00;99.90;;;;;;4846640;29;20459;-96
2022/05/23 11:54:10;;;;;;;8.37;3.60;;;17.80;99.90;;;;;;4848865;29;20812;-96
2022/05/23 11:56:47;;;;;;;5.03;4.17;;;17.60;99.90;;;;;;4849951;29;20459;-96
2022/05/23 11:59:34;;;;;;;6.53;4.10;;;17.50;99.90;;;;;;4839664;29;20436;-95
2022/05/23 12:02:10;;;;;;;4.97;4.43;;;17.40;99.90;;;;;;4837925;29;20436;-96
2022/05/23 12:04:51;;;;;;;5.50;3.33;;;17.40;99.90;;;;;;4836886;29;20479;-96
2022/05/23 12:07:54;;;;;;;5.20;2.80;;;17.40;99.90;;;;;;4826016;29;20464;-95
2022/05/23 12:10:24;;;;;;;7.03;3.43;;;17.20;99.90;;;;;;4832295;29;20447;-96
2022/05/23 12:31:15;;;;;;;8.40;3.33;;;17.10;99.90;;;;;;4908049;23;20576;-94
2022/05/23 12:34:17;;;;;;;5.80;2.80;;;17.10;99.90;;;;;;4820779;29;20448;-92
2022/05/23 12:36:52;;;;;;;7.27;3.40;;;17.00;99.90;;;;;;4801593;29;20507;-91
2022/05/23 12:39:42;;;;;;;4.33;3.10;;;17.10;99.90;;;;;;4806024;29;20522;-91
2022/05/23 12:42:13;;;;;;;4.50;2.87;;;17.30;99.90;;;;;;4804712;29;20455;-91
2022/05/23 12:45:40;;;;;;;7.80;3.63;;;17.60;99.90;;;;;;4813213;29;20516;-92
2022/05/23 12:48:46;;;;;;;4.90;3.30;;;18.10;99.90;;;;;;4824428;29;20550;-94
2022/05/23 12:51:42;;;;;;;6.00;3.23;;;18.30;99.90;;;;;;4806305;29;20529;-96
2022/05/23 12:55:18;;;;;;;3.30;3.03;;;18.60;99.90;;;;;;4811504;29;20519;-93
2022/05/23 12:58:07;;;;;;;5.90;2.87;;;18.90;99.90;;;;;;4830169;29;21880;-93
2022/05/23 13:01:08;;;;;;;5.87;3.43;;;19.40;99.90;;;;;;4832101;29;20554;-92
2022/05/23 13:04:21;;;;;;;4.37;3.27;;;19.70;99.90;;;;;;4820548;29;20436;-95
2022/05/23 13:07:45;;;;;;;3.90;2.80;;;20.10;99.90;;;;;;4825207;29;20574;-96
2022/05/23 13:34:01;;;;;;;3.03;2.00;;;23.20;99.90;;;;;;5152263;23;20538;-96
2022/05/23 13:36:51;;;;;;;3.57;2.53;;;23.90;99.90;;;;;;4855074;29;20475;-96
2022/05/23 13:39:26;;;;;;;3.90;2.00;;;23.80;99.90;;;;;;4843690;29;20740;-91
2022/05/23 13:41:56;;;;;;;4.63;2.40;;;23.80;99.90;;;;;;4848309;29;20456;-96
2022/05/23 13:44:34;;;;;;;3.60;2.50;;;23.80;99.90;;;;;;5603369;23;20511;-96
2022/05/23 13:52:33;;;;;;;4.40;2.87;;;25.00;99.90;;;;;;5667919;23;20890;-87
2022/05/23 13:55:11;;;;;;;4.10;2.40;;;26.10;99.90;;;;;;4834719;29;20450;-96
2022/05/23 13:57:47;;;;;;;4.33;2.57;;;26.90;97.80;;;;;;4837019;29;20447;-93
2022/05/23 14:00:36;;;;;;;2.43;2.23;;;27.40;95.90;;;;;;4832063;29;20452;-96
2022/05/23 14:03:10;;;;;;;5.33;1.90;;;28.50;93.70;;;;;;4840705;29;20453;-95
2022/05/23 14:05:46;;;;;;;3.67;2.23;;;28.90;92.70;;;;;;4864016;29;20924;-96
2022/05/23 14:09:07;;;;;;;6.70;6.00;;;30.00;91.20;;;;;;4853274;29;20443;-96
2022/05/23 14:11:38;;;;;;;3.90;2.53;;;31.40;87.30;;;;;;4850777;29;20469;-96
2022/05/23 14:14:27;;;;;;;2.63;1.67;;;31.30;84.70;;;;;;4871271;29;20447;-96
2022/05/23 14:17:02;;;;;;;5.80;1.63;;;32.60;79.80;;;;;;4859337;29;20448;-96
2022/05/23 14:30:20;;;;;;;3.37;2.00;;;29.60;86.80;;;;;;5125972;23;20534;-96
2022/05/23 14:33:10;;;;;;;3.40;2.10;;;30.90;84.90;;;;;;4850909;29;20466;-95
2022/05/23 14:35:51;;;;;;;3.37;1.90;;;31.90;82.70;;;;;;4874821;29;20462;-96
2022/05/23 14:57:19;;;;;;;6.07;4.73;;;31.00;72.80;;;;;;5117888;23;20523;-92
2022/05/23 15:02:46;;;;;;;4.43;1.97;;;27.60;82.60;;;;;;4842450;29;20712;-92
2022/05/23 15:05:13;;;;;;;4.03;1.90;;;26.60;85.90;;;;;;4850269;29;20506;-95
2022/05/23 15:07:39;;;;;;;6.63;2.80;;;25.70;90.50;;;;;;4843483;29;21616;-91
2022/05/23 15:10:06;;;;;;;1.77;1.60;;;25.10;92.10;;;;;;4856385;29;21387;-86
2022/05/23 15:12:31;;;;;;;3.80;2.10;;;25.00;93.00;;;;;;4835888;29;20225;-88
2022/05/23 15:14:57;;;;;;;2.93;1.73;;;24.90;93.80;;;;;;4851009;29;20506;-90
2022/05/23 15:17:25;;;;;;;4.30;2.30;;;24.50;94.70;;;;;;4838618;29;20273;-88
2022/05/23 15:19:52;;;;;;;3.17;2.43;;;24.20;96.10;;;;;;4848995;29;20214;-90
2022/05/23 15:22:21;;;;;;;7.00;2.60;;;23.60;96.80;;;;;;4856042;29;20544;-87
2022/05/23 15:25:00;;;;;;;3.23;2.93;;;23.30;98.80;;;;;;4853135;29;20522;-85
2022/05/23 15:27:29;;;;;;;4.67;2.77;;;22.90;99.70;;;;;;4827953;29;21093;-86
2022/05/23 15:30:00;;;;;;;9.70;2.83;;;22.80;99.90;;;;;;4830457;29;20455;-86
2022/05/23 15:32:26;;;;;;;3.57;3.07;;;22.70;99.90;;;;;;4832594;29;20875;-86
2022/05/23 15:34:51;;;;;;;3.50;3.00;;;22.50;99.90;;;;;;4831322;29;20550;-86
2022/05/23 15:37:17;;;;;;;6.20;3.07;;;22.30;99.90;;;;;;4843354;29;20220;-86
2022/05/23 15:42:38;;;;;;;5.37;2.73;;;22.00;99.90;;;;;;4904280;23;20720;-95
2022/05/23 15:45:14;;;;;;;3.10;2.60;;;21.80;99.90;;;;;;4816546;29;20487;-96
2022/05/23 15:47:58;;;;;;;6.53;2.47;;;21.70;99.90;;;;;;4845606;29;21234;-96
2022/05/23 15:51:03;;;;;;;;;;;;;;;;;;;;;
2022/05/23 15:56:55;;;;;;;4.70;3.40;;;21.20;99.90;;;;;;4952086;23;20584;-89
2022/05/23 15:59:21;;;;;;;7.43;3.60;;;21.00;99.90;;;;;;4835621;29;20498;-89
2022/05/23 16:01:49;;;;;;;7.70;3.10;;;20.80;99.90;;;;;;4852207;29;20526;-89
2022/05/23 16:04:15;;;;;;;8.03;3.87;;;20.50;99.90;;;;;;4837421;29;20525;-89
2022/05/23 16:06:45;;;;;;;7.17;3.87;;;20.30;99.90;;;;;;4837257;29;20586;-90
2022/05/23 16:09:11;;;;;;;3.50;2.93;;;20.20;99.90;;;;;;4834225;29;20451;-88
2022/05/23 16:12:02;;;;;;;5.00;3.07;;;20.10;99.90;;;;;;4837034;29;20450;-90
2022/05/23 16:14:30;;;;;;;4.10;2.97;;;20.00;99.90;;;;;;4825934;29;20782;-90
2022/05/23 16:17:00;;;;;;;6.10;2.83;;;19.90;99.90;;;;;;4825046;29;20534;-89
2022/05/23 16:19:27;;;;;;;4.93;2.93;;;19.90;99.90;;;;;;4831215;29;20980;-91
2022/05/23 16:21:54;;;;;;;6.00;3.60;;;19.70;99.90;;;;;;4824207;29;20448;-91
2022/05/23 16:24:21;;;;;;;4.90;3.07;;;19.60;99.90;;;;;;4818956;29;20460;-91
2022/05/23 16:26:46;;;;;;;5.50;3.23;;;19.70;99.90;;;;;;4819878;29;21711;-92
2022/05/23 16:29:12;;;;;;;5.00;3.00;;;19.50;99.90;;;;;;4822419;29;20519;-92
2022/05/23 16:31:38;;;;;;;7.90;4.40;;;19.40;99.90;;;;;;4830674;29;20581;-92
2022/05/23 16:36:48;;;;;;;6.17;3.40;;;19.40;99.90;;;;;;4824028;29;20210;-91
2022/05/23 16:39:19;;;;;;;5.90;2.97;;;19.30;99.90;;;;;;4828040;29;20443;-92
2022/05/23 16:41:47;;;;;;;5.87;2.80;;;19.20;99.90;;;;;;4838814;29;20283;-91
2022/05/23 16:44:14;;;;;;;5.97;3.10;;;19.20;99.90;;;;;;4823098;29;20443;-91
2022/05/23 16:46:40;;;;;;;4.37;2.93;;;19.00;99.90;;;;;;4820416;29;20599;-89
2022/05/23 16:49:06;;;;;;;5.50;2.40;;;19.00;99.90;;;;;;4835556;29;20457;-88
2022/05/23 16:51:33;;;;;;;4.87;2.43;;;18.90;99.90;;;;;;4847405;29;21072;-91
2022/05/23 16:54:00;;;;;;;5.93;2.47;;;18.80;99.90;;;;;;4826165;29;20467;-92
2022/05/23 16:56:26;;;;;;;4.17;2.80;;;18.90;99.90;;;;;;4845055;29;20451;-94
2022/05/23 16:58:57;;;;;;;5.90;2.40;;;18.80;99.90;;;;;;4838836;29;20466;-93
2022/05/23 17:01:24;;;;;;;4.80;2.83;;;18.70;99.90;;;;;;4851105;29;20472;-93
2022/05/23 17:03:51;;;;;;;4.83;2.80;;;18.60;99.90;;;;;;4845312;29;20458;-92
2022/05/23 17:06:17;;;;;;;3.87;2.80;;;18.60;99.90;;;;;;4839490;29;21265;-93
2022/05/23 17:08:44;;;;;;;4.00;2.50;;;18.50;99.90;;;;;;4830177;29;20480;-94
2022/05/23 17:11:14;;;;;;;6.17;2.80;;;18.50;99.90;;;;;;4829724;29;20483;-95
2022/05/23 17:13:51;;;;;;;5.93;2.10;;;18.50;99.90;;;;;;4842347;29;20488;-95
2022/05/23 17:16:39;;;;;;;9.30;2.60;;;18.50;99.90;;;;;;4828367;29;20498;-95
2022/05/23 17:19:08;;;;;;;6.80;2.80;;;18.50;99.90;;;;;;4840432;29;20459;-95
2022/05/23 17:21:34;;;;;;;2.80;1.90;;;18.50;99.90;;;;;;4848371;29;20487;-96
2022/05/23 17:23:59;;;;;;;3.97;2.37;;;18.50;99.90;;;;;;4833684;29;20549;-94
2022/05/23 17:26:25;;;;;;;4.70;2.20;;;18.50;99.90;;;;;;4829718;29;20222;-94
2022/05/23 17:28:52;;;;;;;4.23;3.17;;;18.50;99.90;;;;;;4833148;29;20278;-94
2022/05/23 17:31:21;;;;;;;3.13;2.40;;;18.60;99.90;;;;;;4826743;29;20959;-92
2022/05/23 17:33:56;;;;;;;8.90;3.90;;;18.60;99.90;;;;;;4848221;29;20439;-96
2022/05/23 17:36:32;;;;;;;10.40;4.17;;;18.60;99.90;;;;;;4877103;29;20460;-96
2022/05/23 17:38:58;;;;;;;3.27;2.30;;;18.70;99.90;;;;;;4856860;29;20481;-94
2022/05/23 17:41:26;;;;;;;5.17;2.57;;;18.70;99.90;;;;;;4849456;29;20534;-96
2022/05/23 17:43:52;;;;;;;5.53;2.97;;;18.70;99.90;;;;;;4836216;29;20182;-94
2022/05/23 17:46:42;;;;;;;4.77;2.90;;;18.80;99.90;;;;;;4864306;29;20483;-96
2022/05/23 17:49:38;;;;;;;5.10;3.40;;;18.80;99.90;;;;;;4836810;29;20446;-95
2022/05/23 17:52:26;;;;;;;4.60;2.77;;;18.80;99.90;;;;;;4833901;29;20463;-92
2022/05/23 17:54:55;;;;;;;4.70;2.50;;;18.80;99.90;;;;;;4827745;29;20459;-91
2022/05/23 17:57:22;;;;;;;8.63;3.50;;;18.80;99.90;;;;;;4810801;29;20645;-94
2022/05/23 17:59:48;;;;;;;8.53;2.97;;;18.80;99.90;;;;;;4844017;29;20462;-93
2022/05/23 18:02:15;;;;;;;5.50;2.70;;;18.80;99.90;;;;;;4831808;29;20510;-92
2022/05/23 18:04:41;;;;;;;3.90;2.90;;;18.90;99.90;;;;;;4839830;29;20574;-92
2022/05/23 18:07:07;;;;;;;3.70;3.23;;;18.90;99.90;;;;;;4847717;29;20453;-95
2022/05/23 18:09:33;;;;;;;3.60;2.87;;;18.90;99.90;;;;;;4861148;29;20638;-94
2022/05/23 18:11:58;;;;;;;6.40;2.80;;;18.90;99.90;;;;;;4855706;29;20190;-93
2022/05/23 18:19:52;;;;;;;4.97;3.07;;;19.00;99.90;;;;;;4843048;29;20964;-92
2022/05/23 18:22:17;;;;;;;5.07;2.63;;;19.00;99.90;;;;;;4835819;29;20443;-92
2022/05/23 18:24:43;;;;;;;6.60;3.07;;;19.00;99.90;;;;;;4833038;29;20214;-89
2022/05/23 18:27:09;;;;;;;3.57;2.67;;;19.00;99.90;;;;;;4840111;29;20190;-92
2022/05/23 18:29:35;;;;;;;5.23;2.60;;;19.00;99.90;;;;;;4848408;29;20564;-92
2022/05/23 18:32:02;;;;;;;5.73;4.00;;;18.90;99.90;;;;;;4845839;29;20201;-92
2022/05/23 18:34:28;;;;;;;5.33;3.57;;;18.90;99.90;;;;;;4844270;29;20765;-91
2022/05/23 18:36:57;;;;;;;3.23;2.50;;;18.80;99.90;;;;;;4846857;29;20454;-91
2022/05/23 18:39:22;;;;;;;2.90;2.50;;;18.80;99.90;;;;;;4839911;29;20456;-91
2022/05/23 18:41:48;;;;;;;3.93;3.40;;;18.80;99.90;;;;;;4842538;29;20454;-92
2022/05/23 18:44:14;;;;;;;6.13;3.93;;;18.80;99.90;;;;;;4856990;29;20218;-92
2022/05/23 18:46:43;;;;;;;6.83;2.90;;;18.70;99.90;;;;;;4853996;29;20844;-92
2022/05/23 18:51:56;;;;;;;7.63;3.27;;;18.70;99.90;;;;;;4852623;29;21544;-90
2022/05/23 18:54:22;;;;;;;5.43;3.20;;;18.70;99.90;;;;;;4856088;29;20504;-91
2022/05/23 18:57:06;;;;;;;3.97;3.00;;;18.70;99.90;;;;;;4840064;29;20466;-91
2022/05/23 19:00:07;;;;;;;4.40;2.80;;;18.70;99.90;;;;;;4845298;29;20436;-93
2022/05/23 19:02:38;;;;;;;5.03;2.47;;;18.90;99.90;;;;;;4866590;29;20529;-89
2022/05/23 19:05:33;;;;;;;5.70;3.03;;;19.00;99.90;;;;;;4843694;29;20481;-95
2022/05/23 19:07:58;;;;;;;4.17;3.50;;;19.00;99.90;;;;;;4853661;29;20443;-92
2022/05/23 19:10:35;;;;;;;3.00;2.63;;;19.10;99.90;;;;;;4850605;29;20515;-93
2022/05/23 19:13:31;;;;;;;3.47;3.10;;;19.20;99.90;;;;;;4860799;29;20345;-94
2022/05/23 19:16:20;;;;;;;3.83;3.00;;;19.20;99.90;;;;;;4861598;29;20451;-92
2022/05/23 19:18:49;;;;;;;5.20;2.90;;;19.20;99.90;;;;;;4860998;29;20545;-93
2022/05/23 19:21:17;;;;;;;4.60;2.63;;;19.10;99.90;;;;;;4858675;29;20566;-92
2022/05/23 19:23:44;;;;;;;2.77;2.50;;;19.00;99.90;;;;;;4843231;29;20489;-91
2022/05/23 19:26:11;;;;;;;3.70;2.90;;;18.90;99.90;;;;;;4852961;29;20864;-94
2022/05/23 19:28:38;;;;;;;4.33;2.30;;;19.00;99.90;;;;;;4874259;29;20440;-94
2022/05/23 19:31:05;;;;;;;4.20;2.80;;;18.80;99.90;;;;;;4866207;29;20455;-92
2022/05/23 19:33:32;;;;;;;4.07;2.80;;;18.80;99.90;;;;;;4854017;29;20537;-90
2022/05/23 19:35:57;;;;;;;6.20;2.60;;;18.80;99.90;;;;;;4866869;29;20462;-92
2022/05/23 19:38:25;;;;;;;4.20;2.30;;;18.80;99.90;;;;;;4860643;29;20447;-93
2022/05/23 19:40:51;;;;;;;4.40;2.83;;;18.70;99.90;;;;;;4862047;29;20194;-95
2022/05/23 19:43:17;;;;;;;2.23;2.13;;;18.70;99.90;;;;;;4860802;29;20479;-93
2022/05/23 19:45:45;;;;;;;5.80;2.97;;;18.70;99.90;;;;;;4861271;29;20328;-95
2022/05/23 19:48:24;;;;;;;3.80;2.53;;;18.70;99.90;;;;;;4858516;29;20459;-93
2022/05/23 19:50:54;;;;;;;3.53;2.33;;;18.70;99.90;;;;;;4849655;29;20479;-96
2022/05/23 19:53:53;;;;;;;2.67;2.33;;;18.70;99.90;;;;;;4843940;29;20442;-96
2022/05/23 19:56:27;;;;;;;12.03;10.13;;;18.70;99.90;;;;;;4852327;29;20468;-94
2022/05/23 19:59:40;;;;;;;7.53;4.07;;;18.70;99.90;;;;;;4862948;29;20465;-92
2022/05/23 20:08:25;;;;;;;34.10;31.03;;;18.60;99.90;;;;;;4845910;29;20512;-92
2022/05/23 20:10:52;;;;;;;5.33;3.30;;;18.60;99.90;;;;;;4846482;29;21032;-93
2022/05/23 20:13:18;;;;;;;3.50;2.90;;;18.60;99.90;;;;;;4841692;29;20458;-91
2022/05/23 20:15:44;;;;;;;9.27;8.40;;;18.60;99.90;;;;;;4842272;29;20494;-92
2022/05/23 20:18:16;;;;;;;19.80;17.97;;;18.60;99.90;;;;;;4844636;29;20512;-91
2022/05/23 20:20:45;;;;;;;9.90;8.33;;;18.60;99.90;;;;;;4839586;29;20469;-90
2022/05/23 20:23:24;;;;;;;60.63;52.10;;;18.60;99.90;;;;;;4847409;29;21567;-91
2022/05/23 20:25:51;;;;;;;4.20;3.30;;;18.60;99.90;;;;;;4856819;29;20486;-90
2022/05/23 20:28:21;;;;;;;4.10;2.90;;;18.60;99.90;;;;;;4850194;29;20443;-92
2022/05/23 20:31:05;;;;;;;67.17;61.40;;;18.60;99.90;;;;;;4840027;29;20456;-92
2022/05/23 20:33:31;;;;;;;21.30;19.37;;;18.60;99.90;;;;;;4845023;29;20533;-93
2022/05/23 20:35:59;;;;;;;4.73;4.33;;;18.60;99.90;;;;;;4845635;29;20554;-95
2022/05/23 20:38:27;;;;;;;67.70;61.57;;;18.60;99.90;;;;;;4853642;29;20212;-94
2022/05/23 20:40:52;;;;;;;8.53;4.33;;;18.60;99.90;;;;;;4842055;29;21308;-92
2022/05/23 20:43:19;;;;;;;303.40;277.33;;;18.60;99.90;;;;;;4845205;29;20480;-92
2022/05/23 20:45:46;;;;;;;65.70;59.87;;;18.40;99.90;;;;;;4844353;29;20230;-92
2022/05/23 20:48:12;;;;;;;4.40;4.00;;;18.40;99.90;;;;;;4842785;29;20442;-92
2022/05/23 20:50:46;;;;;;;4.37;3.17;;;18.30;99.90;;;;;;4840970;29;21041;-91
2022/05/23 20:53:53;;;;;;;4.30;2.83;;;18.20;99.90;;;;;;4838255;29;20657;-94
2022/05/23 20:56:39;;;;;;;6.10;3.47;;;18.20;99.90;;;;;;4839868;29;20454;-94
2022/05/23 20:59:04;;;;;;;3.93;3.30;;;18.20;99.90;;;;;;4835091;29;20471;-93
2022/05/23 21:01:30;;;;;;;4.20;3.80;;;18.20;99.90;;;;;;4831895;29;20198;-91
2022/05/23 21:03:55;;;;;;;4.20;3.40;;;18.20;99.90;;;;;;4840209;29;20189;-92
2022/05/23 21:06:21;;;;;;;7.07;3.77;;;18.30;99.90;;;;;;4833202;29;20673;-94
2022/05/23 21:08:48;;;;;;;8.80;3.60;;;18.30;99.90;;;;;;4838956;29;20271;-91
2022/05/23 21:11:14;;;;;;;80.13;73.03;;;18.30;99.90;;;;;;4845062;29;20194;-92
2022/05/23 21:13:40;;;;;;;22.20;20.17;;;18.30;99.90;;;;;;4845489;29;20467;-91
2022/05/23 21:16:30;;;;;;;2.60;2.40;;;18.40;99.90;;;;;;4834276;29;20462;-95
2022/05/23 21:19:11;;;;;;;3.53;2.40;;;18.40;99.90;;;;;;4834786;29;20218;-94
2022/05/23 21:21:41;;;;;;;5.43;3.60;;;18.40;99.90;;;;;;4852088;29;20450;-93
2022/05/23 21:24:32;;;;;;;2.90;2.70;;;18.40;99.90;;;;;;4834987;29;20561;-91
2022/05/23 21:26:59;;;;;;;3.87;2.73;;;18.30;99.90;;;;;;4838359;29;20459;-93
2022/05/23 21:29:25;;;;;;;3.30;2.70;;;18.30;99.90;;;;;;4833452;29;21029;-91
2022/05/23 21:31:50;;;;;;;3.97;2.60;;;18.30;99.90;;;;;;4807551;29;20195;-92
2022/05/23 21:34:26;;;;;;;2.70;2.50;;;18.30;99.90;;;;;;4840166;29;20194;-92
2022/05/23 21:36:52;;;;;;;5.13;3.17;;;18.30;99.90;;;;;;4837927;29;20200;-90
2022/05/23 21:39:20;;;;;;;4.00;2.37;;;18.30;99.90;;;;;;4854133;29;20522;-95
2022/05/23 21:47:21;;;;;;;3.70;3.20;;;18.40;99.90;;;;;;4869220;29;20447;-96
2022/05/23 21:49:47;;;;;;;6.43;2.90;;;18.40;99.90;;;;;;4870490;29;20453;-96
2022/05/23 21:52:16;;;;;;;2.60;2.40;;;18.40;99.90;;;;;;4869632;29;20455;-96
2022/05/23 21:55:31;;;;;;;3.83;3.47;;;18.30;99.90;;;;;;4871428;29;20190;-96
2022/05/23 23:04:22;;;;;;;2.80;2.37;;;17.70;99.90;;;;;;520073;23;20736;-96
2022/05/23 23:07:13;;;;;;;2.80;2.60;;;17.70;99.90;;;;;;4855756;29;20448;-96
2022/05/23 23:14:51;;;;;;;3.17;2.63;;;17.50;99.90;;;;;;4870140;29;20518;-96
